KPNS/PNS METAR and TAF weather

Enter ICAO airport designator
Station Type Date Time Source
KPNS METAR 2020/01/23 14:53 UTC NOAA

KPNS 231453Z 08007KT 10SM OVC021 10/03 A3014 RMK AO2 SLP209 T01000033


Station Type Date Time Source
KPNS Decoded METAR 2020/01/23 14:53 UTC NOAA

PENSACOLA REGIONAL AIRPORT, FL, United States (KPNS) 30-29N 087-11W 38M
Jan 23, 2020 - 09:53 AM EST / 2020.01.23 1453 UTC
Wind: from the E (080 degrees) at 8 MPH (7 KT):0
Visibility: 10 mile(s):0
Sky conditions: overcast
Temperature: 50.0 F (10.0 C)
Dew Point: 37.9 F (3.3 C)
Relative Humidity: 63%
Pressure (altimeter): 30.14 in. Hg (1020 hPa)
ob: KPNS 231453Z 08007KT 10SM OVC021 10/03 A3014 RMK AO2 SLP209 T01000033
cycle: 15

Station Type Date Time Source
KPNS TAF 2020/01/23 12:22 UTC NOAA

TAF KPNS 231120Z 2312/2412 09011KT P6SM -SHRA OVC070
FM231800 10011G20KT P6SM VCSH BKN030
FM232300 13010G19KT 5SM SHRA OVC009
FM240400 17008KT 6SM SHRA BKN021
FM240600 20007KT P6SM BKN011 PROB30 2406/2409 4SM SHRA OVC009

Example: see airport list